Terminal Aerodrome Forecast
Issued by NWS

Home | Current Version | Previous Version | Text Only | Print | Product List | Glossary On
Versions: 1 2 3 4 5 6 7 8 9 10 11 12 13
000
FTUS41 KCAR 272321
TAFPQI
TAF
KPQI 272321Z 2800/2824 16006KT P6SM BKN250
     FM281400 VRB03KT P6SM BKN090 OVC150
     FM282200 07006KT P6SM VCSH SCT025 OVC050=

USA.gov is the U.S. government's official web portal to all federal, state and local government web resources and services.